ADDS METAR Data

Data at: 0259 UTC 21 Jun 2018

METAR for:KISP (Islip/Macarthur Arpt, NY, US)
Text:KISP 210256Z 18005KT 10SM FEW040 OVC065 21/19 A2979 RMK AO2 RAE42 SLP087 P0000 60000 T02110194 58000
Temperature: 21.1°C ( 70°F)
Dewpoint: 19.4°C ( 67°F) [RH = 90%]
Pressure (altimeter):29.79 inches Hg (1008.9 mb) [Sea level pressure: 1008.7 mb]
Winds:from the S (180 degrees) at 6 MPH (5 knots; 2.6 m/s)
Visibility:10 or more sm (16+ km)
Ceiling:6500 feet AGL
Clouds: few clouds at 4000 feet AGL, overcast cloud deck at 6500 feet AGL